Time;durP1;ratioP1;P1;durP2;ratioP2;P2;SDS_P1;SDS_P2;PMS_P1;PMS_P2;Temp;Humidity;BMP_temperature;BMP_pressure;BME280_temperature;BME280_humidity;BME280_pressure;Samples;Min_cycle;Max_cycle;Signal;HPM_P1;HPM_P2
2023/04/09 00:01:28;;;;;;;;;;;;;;;4.31;100.00;96465.28;5112197;27;19931;-74
2023/04/09 00:03:54;;;;;;;;;;;;;;;4.39;100.00;96459.94;5119930;27;19931;-74
2023/04/09 00:06:20;;;;;;;;;;;;;;;4.47;100.00;96453.72;5118685;27;19931;-74
2023/04/09 00:08:47;;;;;;;;;;;;;;;4.40;100.00;96451.34;5121970;27;19930;-74
2023/04/09 00:11:14;;;;;;;;;;;;;;;4.40;100.00;96451.34;5114291;27;19931;-74
2023/04/09 00:13:40;;;;;;;;;;;;;;;4.34;100.00;96449.81;5122810;27;19928;-74
2023/04/09 00:16:07;;;;;;;;;;;;;;;4.33;100.00;96446.38;5119307;27;20336;-74
2023/04/09 00:18:33;;;;;;;;;;;;;;;4.19;100.00;96452.75;5124331;27;19927;-74
2023/04/09 00:21:00;;;;;;;;;;;;;;;4.02;100.00;96443.81;5126665;27;19932;-74
2023/04/09 00:23:26;;;;;;;;;;;;;;;4.06;100.00;96436.88;5115454;27;19928;-74
2023/04/09 00:25:52;;;;;;;;;;;;;;;4.21;100.00;96443.31;5119679;27;19939;-75
2023/04/09 00:28:20;;;;;;;;;;;;;;;4.16;100.00;96434.94;5117016;27;19927;-76
2023/04/09 00:30:46;;;;;;;;;;;;;;;4.03;100.00;96430.09;5122609;27;20333;-74
2023/04/09 00:33:12;;;;;;;;;;;;;;;3.80;100.00;96435.84;5106073;27;19924;-74
2023/04/09 00:35:39;;;;;;;;;;;;;;;3.80;100.00;96435.84;5113855;27;19949;-74
2023/04/09 00:38:05;;;;;;;;;;;;;;;3.80;100.00;96442.69;5122645;27;19946;-74
2023/04/09 00:40:32;;;;;;;;;;;;;;;3.72;100.00;96434.34;5109822;27;19924;-74
2023/04/09 00:42:58;;;;;;;;;;;;;;;3.48;100.00;96430.66;5120761;27;19927;-74
2023/04/09 00:45:26;;;;;;;;;;;;;;;3.41;100.00;96435.09;5113827;27;19928;-74
2023/04/09 00:47:53;;;;;;;;;;;;;;;3.24;100.00;96435.50;5120129;27;19924;-74
2023/04/09 00:50:19;;;;;;;;;;;;;;;3.26;100.00;96433.72;5123106;27;20297;-74
2023/04/09 00:52:45;;;;;;;;;;;;;;;3.34;100.00;96438.69;5116332;27;20399;-74
2023/04/09 00:55:12;;;;;;;;;;;;;;;3.38;100.00;96438.59;5109608;27;19924;-74
2023/04/09 00:57:38;;;;;;;;;;;;;;;3.46;100.00;96440.13;5119309;27;19928;-74
2023/04/09 01:00:06;;;;;;;;;;;;;;;3.51;100.00;96439.13;5113861;27;19931;-74
2023/04/09 01:02:34;;;;;;;;;;;;;;;3.66;100.00;96442.19;5122450;27;19969;-74
2023/04/09 01:05:00;;;;;;;;;;;;;;;3.63;100.00;96437.97;5104579;27;19928;-74
2023/04/09 01:07:32;;;;;;;;;;;;;;;3.63;100.00;96438.84;5121552;27;20393;-74
2023/04/09 01:10:01;;;;;;;;;;;;;;;3.70;100.00;96434.38;5115422;27;19935;-74
2023/04/09 01:12:32;;;;;;;;;;;;;;;3.58;100.00;96445.78;5113351;27;20285;-74
2023/04/09 01:15:02;;;;;;;;;;;;;;;3.55;100.00;96438.16;5110668;27;20416;-74
2023/04/09 01:17:31;;;;;;;;;;;;;;;3.58;100.00;96434.69;5115211;27;20389;-74
2023/04/09 01:20:02;;;;;;;;;;;;;;;3.61;100.00;96432.06;5114157;27;20139;-74
2023/04/09 01:22:32;;;;;;;;;;;;;;;3.71;100.00;96432.66;5107165;27;20030;-76
2023/04/09 01:25:04;;;;;;;;;;;;;;;3.76;100.00;96438.53;5107896;27;19931;-74
2023/04/09 01:27:34;;;;;;;;;;;;;;;3.77;100.00;96435.06;5101606;27;19971;-74
2023/04/09 01:30:04;;;;;;;;;;;;;;;3.77;100.00;96433.34;5120377;27;19931;-74
2023/04/09 01:32:32;;;;;;;;;;;;;;;3.73;100.00;96433.47;5113249;27;19935;-74
2023/04/09 01:34:59;;;;;;;;;;;;;;;3.77;100.00;96435.91;5103602;27;19934;-73
2023/04/09 01:37:26;;;;;;;;;;;;;;;3.86;100.00;96434.84;5110154;27;19931;-74
2023/04/09 01:39:52;;;;;;;;;;;;;;;3.94;100.00;96432.94;5119253;27;19927;-74
2023/04/09 01:42:19;;;;;;;;;;;;;;;3.88;100.00;96439.03;5122228;27;19931;-75
2023/04/09 01:44:46;;;;;;;;;;;;;;;3.82;100.00;96436.66;5115643;27;19930;-74
2023/04/09 01:47:14;;;;;;;;;;;;;;;3.78;100.00;96440.19;5117718;27;19924;-74
2023/04/09 01:49:41;;;;;;;;;;;;;;;3.78;100.00;96431.63;5107373;27;19923;-74
2023/04/09 01:52:07;;;;;;;;;;;;;;;3.84;100.00;96439.16;5102279;27;19931;-74
2023/04/09 01:54:33;;;;;;;;;;;;;;;3.87;100.00;96433.97;5108179;28;19928;-74
2023/04/09 01:57:00;;;;;;;;;;;;;;;3.94;100.00;96435.50;5116281;27;19931;-74
2023/04/09 01:59:26;;;;;;;;;;;;;;;3.98;100.00;96433.69;5098336;27;19924;-74
2023/04/09 02:01:54;;;;;;;;;;;;;;;4.04;100.00;96436.06;5106865;27;19923;-74
2023/04/09 02:04:24;;;;;;;;;;;;;;;4.03;100.00;96430.09;5111421;27;19923;-74
2023/04/09 02:06:53;;;;;;;;;;;;;;;4.04;100.00;96430.94;5103857;27;20409;-74
2023/04/09 02:09:21;;;;;;;;;;;;;;;4.10;100.00;96434.19;5109810;27;19924;-74
2023/04/09 02:11:48;;;;;;;;;;;;;;;4.20;100.00;96429.66;5107760;27;19923;-74
2023/04/09 02:14:15;;;;;;;;;;;;;;;3.98;100.00;96426.84;5115796;27;19945;-74
2023/04/09 02:16:42;;;;;;;;;;;;;;;3.87;100.00;96433.97;5106812;27;19931;-75
2023/04/09 02:19:08;;;;;;;;;;;;;;;3.86;100.00;96434.84;5096050;28;19939;-74
2023/04/09 02:21:36;;;;;;;;;;;;;;;3.73;100.00;96436.03;5108427;27;20289;-74
2023/04/09 02:24:02;;;;;;;;;;;;;;;3.75;100.00;96441.97;5114584;27;19923;-74
2023/04/09 02:26:28;;;;;;;;;;;;;;;3.70;100.00;96439.50;5114735;27;20417;-74
2023/04/09 02:28:54;;;;;;;;;;;;;;;3.69;100.00;96434.44;5111739;28;19931;-74
2023/04/09 02:31:21;;;;;;;;;;;;;;;3.68;100.00;96430.19;5116253;27;19931;-75
2023/04/09 02:33:47;;;;;;;;;;;;;;;3.72;100.00;96431.78;5109683;27;19924;-74
2023/04/09 02:36:13;;;;;;;;;;;;;;;3.69;100.00;96421.63;5102210;28;19936;-74
2023/04/09 02:38:41;;;;;;;;;;;;;;;3.68;100.00;96425.06;5107889;28;20286;-75
2023/04/09 02:41:08;;;;;;;;;;;;;;;3.67;100.00;96426.78;5119514;28;19939;-74
2023/04/09 02:43:34;;;;;;;;;;;;;;;3.68;100.00;96430.19;5117700;28;20393;-74
2023/04/09 02:46:00;;;;;;;;;;;;;;;3.67;100.00;96426.78;5110297;28;19931;-74
2023/04/09 02:48:27;;;;;;;;;;;;;;;3.62;100.00;96421.75;5110845;28;19924;-74
2023/04/09 02:50:53;;;;;;;;;;;;;;;3.64;100.00;96424.31;5119637;28;19927;-74
2023/04/09 02:53:20;;;;;;;;;;;;;;;3.67;100.00;96424.22;5115064;28;19931;-74
2023/04/09 02:55:47;;;;;;;;;;;;;;;3.63;100.00;96423.47;5112018;28;20015;-75
2023/04/09 02:58:14;;;;;;;;;;;;;;;3.67;100.00;96423.38;5098035;28;19935;-74
2023/04/09 03:00:40;;;;;;;;;;;;;;;3.70;100.00;96420.72;5101144;27;19924;-74
2023/04/09 03:03:07;;;;;;;;;;;;;;;3.75;100.00;96418.91;5117995;28;19947;-74
2023/04/09 03:05:33;;;;;;;;;;;;;;;3.74;100.00;96414.66;5116160;28;19927;-74
2023/04/09 03:07:59;;;;;;;;;;;;;;;3.76;100.00;96420.59;5104536;28;19928;-74
2023/04/09 03:10:25;;;;;;;;;;;;;;;3.81;100.00;96416.19;5098018;28;19924;-74
2023/04/09 03:12:53;;;;;;;;;;;;;;;3.80;100.00;96410.22;5114737;27;19931;-74
2023/04/09 03:15:19;;;;;;;;;;;;;;;3.79;100.00;96416.22;5115965;27;20378;-74
2023/04/09 03:17:46;;;;;;;;;;;;;;;3.81;100.00;96405.94;5119364;27;19924;-74
2023/04/09 03:20:12;;;;;;;;;;;;;;;3.83;100.00;96409.31;5125340;27;19924;-74
2023/04/09 03:22:38;;;;;;;;;;;;;;;3.85;100.00;96412.66;5112015;27;20297;-74
2023/04/09 03:25:05;;;;;;;;;;;;;;;3.82;100.00;96405.91;5098662;28;19931;-74
2023/04/09 03:27:32;;;;;;;;;;;;;;;3.78;100.00;96406.00;5120266;27;19967;-74
2023/04/09 03:29:59;;;;;;;;;;;;;;;3.78;100.00;96404.31;5111287;28;19951;-75
2023/04/09 03:32:26;;;;;;;;;;;;;;;3.78;100.00;96400.88;5112031;27;21112;-73
2023/04/09 03:34:52;;;;;;;;;;;;;;;3.71;100.00;96397.66;5111141;28;19946;-74
2023/04/09 03:37:18;;;;;;;;;;;;;;;3.73;100.00;96398.44;5105760;27;19939;-74
2023/04/09 03:39:45;;;;;;;;;;;;;;;3.74;100.00;96401.84;5106792;27;20301;-74
2023/04/09 03:42:11;;;;;;;;;;;;;;;3.68;100.00;96397.72;5116963;27;19924;-75
2023/04/09 03:44:37;;;;;;;;;;;;;;;3.64;100.00;96401.25;5107273;27;19927;-74
2023/04/09 03:47:05;;;;;;;;;;;;;;;3.69;100.00;96401.13;5102162;27;19935;-72
2023/04/09 03:49:31;;;;;;;;;;;;;;;3.65;100.00;96402.94;5118398;27;19953;-76
2023/04/09 03:51:57;;;;;;;;;;;;;;;3.54;100.00;96404.91;5108616;27;19924;-75
2023/04/09 03:54:24;;;;;;;;;;;;;;;3.46;100.00;96400.00;5114709;27;19931;-74
2023/04/09 03:56:50;;;;;;;;;;;;;;;3.48;100.00;96407.63;5117483;27;19947;-74
2023/04/09 03:59:16;;;;;;;;;;;;;;;3.38;100.00;96399.34;5110536;27;19923;-76
2023/04/09 04:01:42;;;;;;;;;;;;;;;3.39;100.00;96404.41;5113442;27;19923;-75
2023/04/09 04:04:10;;;;;;;;;;;;;;;3.38;100.00;96407.03;5104865;27;20322;-72
2023/04/09 04:06:36;;;;;;;;;;;;;;;3.40;100.00;96405.25;5115939;27;19927;-75
2023/04/09 04:09:03;;;;;;;;;;;;;;;3.42;100.00;96406.06;5110420;27;20397;-75
2023/04/09 04:11:29;;;;;;;;;;;;;;;3.46;100.00;96409.41;5115034;27;19931;-74
2023/04/09 04:13:56;;;;;;;;;;;;;;;3.50;100.00;96411.00;5118894;27;19924;-75
2023/04/09 04:16:22;;;;;;;;;;;;;;;3.55;100.00;96407.44;5120909;27;19923;-74
2023/04/09 04:18:48;;;;;;;;;;;;;;;3.56;100.00;96404.00;5117283;27;19934;-75
2023/04/09 04:21:16;;;;;;;;;;;;;;;3.52;100.00;96411.78;5120905;27;19934;-74
2023/04/09 04:23:42;;;;;;;;;;;;;;;3.52;100.00;96410.09;5118502;27;19924;-75
2023/04/09 04:26:09;;;;;;;;;;;;;;;3.53;100.00;96416.06;5125382;27;19931;-74
2023/04/09 04:28:36;;;;;;;;;;;;;;;3.54;100.00;96416.00;5119477;27;19967;-74
2023/04/09 04:31:02;;;;;;;;;;;;;;;3.43;100.00;96412.88;5125854;27;19970;-74
2023/04/09 04:33:28;;;;;;;;;;;;;;;3.42;100.00;96420.59;5119687;27;19932;-75
2023/04/09 04:36:03;;;;;;;;;;;;;;;3.44;100.00;96418.81;5123615;27;19931;-74
2023/04/09 04:38:31;;;;;;;;;;;;;;;3.25;100.00;96414.13;5119885;27;19942;-74
2023/04/09 04:40:57;;;;;;;;;;;;;;;3.20;100.00;96418.53;5121805;27;19923;-74
2023/04/09 04:43:23;;;;;;;;;;;;;;;3.40;100.00;96423.16;5119923;27;19935;-74
2023/04/09 04:45:49;;;;;;;;;;;;;;;3.11;100.00;96411.91;5113001;27;19930;-74
2023/04/09 04:48:16;;;;;;;;;;;;;;;2.97;100.00;96420.78;5123848;27;19947;-75
2023/04/09 04:50:42;;;;;;;;;;;;;;;2.88;100.00;96412.41;5103158;28;19930;-74
2023/04/09 04:53:08;;;;;;;;;;;;;;;3.08;100.00;96412.00;5112310;27;19932;-75
2023/04/09 04:55:38;;;;;;;;;;;;;;;2.97;100.00;96416.50;5119468;27;19930;-74
2023/04/09 04:58:04;;;;;;;;;;;;;;;2.70;100.00;96412.81;5115050;27;19924;-74
2023/04/09 05:00:30;;;;;;;;;;;;;;;2.67;100.00;96413.75;5120451;27;19930;-74
2023/04/09 05:02:57;;;;;;;;;;;;;;;2.77;100.00;96413.53;5110992;27;19931;-74
2023/04/09 05:05:23;;;;;;;;;;;;;;;2.76;100.00;96419.53;5117709;27;19928;-74
2023/04/09 05:07:49;;;;;;;;;;;;;;;2.82;100.00;96415.13;5121773;27;19931;-74
2023/04/09 05:10:16;;;;;;;;;;;;;;;2.81;100.00;96417.72;5101824;27;19924;-75
2023/04/09 05:12:43;;;;;;;;;;;;;;;2.98;100.00;96418.19;5111001;27;19939;-75
2023/04/09 05:15:10;;;;;;;;;;;;;;;2.97;100.00;96419.06;5100001;27;19928;-74
2023/04/09 05:17:36;;;;;;;;;;;;;;;2.97;100.00;96424.19;5102549;27;20389;-74
2023/04/09 05:20:03;;;;;;;;;;;;;;;2.94;100.00;96420.84;5117710;27;20354;-75
2023/04/09 05:22:29;;;;;;;;;;;;;;;3.03;100.00;96428.31;5114057;27;19963;-74
2023/04/09 05:24:55;;;;;;;;;;;;;;;3.11;100.00;96423.84;5114792;27;19930;-74
2023/04/09 05:27:24;;;;;;;;;;;;;;;3.14;100.00;96418.66;5104249;27;19931;-74
2023/04/09 05:29:52;;;;;;;;;;;;;;;3.18;100.00;96422.00;5123846;27;19930;-75
2023/04/09 05:32:18;;;;;;;;;;;;;;;3.17;100.00;96426.28;5108760;27;19928;-75
2023/04/09 05:34:44;;;;;;;;;;;;;;;3.13;100.00;96424.69;5120490;27;19923;-74
2023/04/09 05:37:11;;;;;;;;;;;;;;;3.13;100.00;96425.50;5114347;27;19924;-74
2023/04/09 05:39:37;;;;;;;;;;;;;;;3.25;100.00;96426.09;5117408;27;19931;-74
2023/04/09 05:42:03;;;;;;;;;;;;;;;3.13;100.00;96424.69;5112092;27;19927;-74
2023/04/09 05:44:30;;;;;;;;;;;;;;;3.13;100.00;96428.06;5112426;27;19924;-74
2023/04/09 05:46:57;;;;;;;;;;;;;;;3.31;100.00;96431.09;5111578;27;20390;-74
2023/04/09 05:49:24;;;;;;;;;;;;;;;3.31;100.00;96436.22;5109533;28;19931;-73
2023/04/09 05:51:50;;;;;;;;;;;;;;;3.40;100.00;96435.97;5104159;27;19924;-75
2023/04/09 05:54:17;;;;;;;;;;;;;;;3.42;100.00;96439.34;5101467;27;19924;-75
2023/04/09 05:56:43;;;;;;;;;;;;;;;3.52;100.00;96438.25;5121709;27;19928;-75
2023/04/09 05:59:10;;;;;;;;;;;;;;;3.58;100.00;96442.38;5118380;27;20355;-74
2023/04/09 06:01:36;;;;;;;;;;;;;;;3.63;100.00;96433.72;5111333;27;19992;-75
2023/04/09 06:04:04;;;;;;;;;;;;;;;3.74;100.00;96430.03;5118458;27;19938;-75
2023/04/09 06:06:31;;;;;;;;;;;;;;;3.71;100.00;96430.97;5108350;27;20018;-75
2023/04/09 06:08:57;;;;;;;;;;;;;;;3.89;100.00;96439.88;5119302;27;20385;-75
2023/04/09 06:11:24;;;;;;;;;;;;;;;4.10;100.00;96436.75;5113516;27;19924;-75
2023/04/09 06:13:51;;;;;;;;;;;;;;;4.40;100.00;96441.94;5120743;27;20270;-75
2023/04/09 06:16:17;;;;;;;;;;;;;;;4.53;100.00;96427.06;5110999;27;19924;-75
2023/04/09 06:18:45;;;;;;;;;;;;;;;4.64;100.00;96430.16;5123484;27;19923;-75
2023/04/09 06:21:13;;;;;;;;;;;;;;;4.81;100.00;96432.22;5115444;27;19924;-74
2023/04/09 06:23:39;;;;;;;;;;;;;;;5.02;100.00;96429.00;5117685;27;19976;-74
2023/04/09 06:26:06;;;;;;;;;;;;;;;5.01;100.00;96432.47;5120933;27;19923;-74
2023/04/09 06:28:32;;;;;;;;;;;;;;;5.04;100.00;96432.38;5132941;27;19973;-74
2023/04/09 06:30:59;;;;;;;;;;;;;;;5.12;100.00;96431.28;5120754;27;19952;-74
2023/04/09 06:33:25;;;;;;;;;;;;;;;5.18;100.00;96431.09;5114740;27;19924;-75
2023/04/09 06:35:51;;;;;;;;;;;;;;;5.17;100.00;96430.28;5112980;27;20298;-75
2023/04/09 06:38:19;;;;;;;;;;;;;;;5.12;100.00;96427.00;5122074;27;19993;-75
2023/04/09 06:40:45;;;;;;;;;;;;;;;5.14;100.00;96435.50;5114460;28;19967;-75
2023/04/09 06:43:12;;;;;;;;;;;;;;;5.27;100.00;96429.09;5120523;28;19923;-75
2023/04/09 06:45:38;;;;;;;;;;;;;;;5.29;100.00;96434.19;5117125;28;19934;-75
2023/04/09 06:48:05;;;;;;;;;;;;;;;5.48;100.00;96440.41;5114766;27;19929;-75
2023/04/09 06:50:32;;;;;;;;;;;;;;;5.69;100.00;96438.03;5129300;27;20006;-75
2023/04/09 06:52:58;;;;;;;;;;;;;;;5.82;100.00;96435.03;5113280;27;19931;-74
2023/04/09 06:55:26;;;;;;;;;;;;;;;5.80;100.00;96444.50;5120633;27;19931;-74
2023/04/09 06:57:52;;;;;;;;;;;;;;;5.90;100.00;96446.78;5116237;28;19927;-75
2023/04/09 07:00:19;;;;;;;;;;;;;;;5.96;100.00;96446.59;5116417;27;19924;-75
2023/04/09 07:02:45;;;;;;;;;;;;;;;5.90;100.00;96446.78;5126154;27;19931;-75
2023/04/09 07:05:12;;;;;;;;;;;;;;;6.25;100.00;96453.31;5114787;27;20015;-74
2023/04/09 07:07:38;;;;;;;13.55;11.77;;;;;;;6.59;100.00;96449.53;5115865;27;20409;-74
2023/04/09 07:10:06;;;;;;;13.65;12.27;;;;;;;6.72;100.00;96448.22;5129513;27;20043;-74
2023/04/09 07:12:34;;;;;;;13.52;12.02;;;;;;;6.86;100.00;96445.13;5123700;27;20125;-75
2023/04/09 07:15:01;;;;;;;;;;;;;;;7.06;100.00;96444.38;5116269;27;20080;-75
2023/04/09 07:17:28;;;;;;;;;;;;;;;7.35;100.00;96438.94;5116547;27;19923;-75
2023/04/09 07:19:54;;;;;;;;;;;;;;;7.69;100.00;96442.75;5117109;27;19924;-75
2023/04/09 07:22:21;;;;;;;;;;;;;;;8.03;100.00;96446.50;5105227;27;19932;-75
2023/04/09 07:24:52;;;;;;;;;;;;;;;8.17;100.00;96454.50;5122572;27;19919;-75
2023/04/09 07:27:18;;;;;;;;;;;;;;;8.08;100.00;96450.56;5112360;27;20003;-75
2023/04/09 07:29:46;;;;;;;;;;;;;;;8.23;100.00;96457.69;5125897;27;19926;-75
2023/04/09 07:32:12;;;;;;;;;;;;;;;8.34;100.00;96462.34;5115387;27;20475;-75
2023/04/09 07:34:39;;;;;;;;;;;;;;;8.57;100.00;96458.00;5103803;27;19923;-74
2023/04/09 07:37:05;;;;;;;;;;;;;;;8.58;100.00;96465.66;5113313;27;19919;-74
2023/04/09 07:39:32;;;;;;;;;;;;;;;8.33;100.00;96465.84;5113379;27;19923;-75
2023/04/09 07:41:58;;;;;;;;;;;;;;;7.73;100.00;96467.50;5123731;27;19923;-74
2023/04/09 07:44:25;;;;;;;;;;;;;;;7.83;100.00;96463.66;5111782;28;19919;-74
2023/04/09 07:46:52;;;;;;;;;;;;;;;7.85;100.00;96461.00;5116463;27;19919;-75
2023/04/09 07:49:20;;;;;;;;;;;;;;;8.52;100.00;96460.75;5117316;27;19924;-75
2023/04/09 07:51:46;;;;;;;;;;;;;;;9.13;100.00;96459.78;5125708;27;19979;-75
2023/04/09 07:54:12;;;;;;;;;;;;;;;9.48;100.00;96460.69;5115332;27;20033;-75
2023/04/09 07:56:39;;;;;;;;;;;;;;;9.64;100.00;96461.66;5126780;27;19930;-75
2023/04/09 07:59:05;;;;;;;;;;;;;;;9.88;100.00;96463.97;5116897;27;19919;-74
2023/04/09 08:01:32;;;;;;;;;;;;;;;9.93;100.00;96461.97;5118857;27;19919;-75
2023/04/09 08:03:59;;;;;;;;;;;;;;;9.88;100.00;96461.38;5125399;27;19930;-75
2023/04/09 08:06:25;;;;;;;;;;;;;;;9.30;100.00;96466.72;5113933;27;19919;-75
2023/04/09 08:08:52;;;;;;;;;;;;;;;8.91;100.00;96463.34;5121393;27;19919;-75
2023/04/09 08:11:23;;;;;;;;;;;;;;;8.61;100.00;96478.44;5120474;27;19923;-75
2023/04/09 08:13:50;;;;;;;;;;;;;;;8.29;100.00;96477.22;5128640;27;19926;-75
2023/04/09 08:16:16;;;;;;;;;;;;;;;8.36;100.00;96485.53;5106671;27;20011;-75
2023/04/09 08:18:42;;;;;;;;;;;;;;;8.45;100.00;96483.44;5118032;27;20438;-75
2023/04/09 08:21:10;;;;;;;;;;;;;;;8.90;100.00;96472.00;5120492;27;19919;-75
2023/04/09 08:23:36;;;;;;;;;;;;;;;9.01;100.00;96473.22;5116645;27;20297;-75
2023/04/09 08:26:03;;;;;;;;;;;;;;;9.01;100.00;96473.22;5113868;27;19940;-75
2023/04/09 08:28:29;;;;;;;;;;;;;;;9.29;100.00;96471.06;5120214;27;19920;-75
2023/04/09 08:30:55;;;;;;;;;;;;;;;9.44;100.00;96475.53;5121218;27;19923;-75
2023/04/09 08:33:21;;;;;;;;;;;;;;;9.89;95.39;96475.97;5124079;27;19989;-75
2023/04/09 08:35:48;;;;;;;;;;;;;;;10.01;85.59;96479.72;5119719;27;19931;-75
2023/04/09 08:38:15;;;;;;;;;;;;;;;9.80;89.92;96472.09;5122163;27;19954;-75
2023/04/09 08:40:42;;;;;;;;;;;;;;;9.53;94.98;96469.09;5113194;27;19928;-75
2023/04/09 08:43:10;;;;;;;;;;;;;;;9.59;86.46;96480.88;5111478;27;19972;-75
2023/04/09 08:45:36;;;;;;;;;;;;;;;9.25;88.66;96479.03;5116526;27;19919;-75
2023/04/09 08:48:03;;;;;;;;;;;;;;;9.08;92.75;96479.81;5117651;27;19923;-75
2023/04/09 08:50:30;;;;;;;;;;;;;;;8.92;92.15;96479.66;5126523;27;20373;-74
2023/04/09 08:52:58;;;;;;;;;;;;;;;8.98;95.80;96481.16;5119183;27;19924;-74
2023/04/09 08:55:25;;;;;;;;;;;;;;;8.60;91.35;96488.81;5127098;27;19919;-74
2023/04/09 08:57:51;;;;;;;;;;;;;;;8.61;92.84;96493.09;5106241;28;20420;-74
2023/04/09 09:00:18;;;;;;;;;;;;;;;8.48;88.15;96490.19;5119327;27;19931;-74
2023/04/09 09:03:03;;;;;;;;;;;;;;;8.79;87.64;96494.03;5101537;27;19943;-74
2023/04/09 09:05:36;;;;;;;;;;;;;;;8.80;80.34;96493.97;5122779;27;19977;-74
2023/04/09 09:08:03;;;;;;;;;;;;;;;8.75;79.25;96495.06;5110348;28;19924;-74
2023/04/09 09:10:38;;;;;;;;;;;;;;;8.64;83.40;96492.94;5114888;27;19920;-75
2023/04/09 09:13:15;;;;;;;;;;;;;;;9.01;86.56;96484.44;5120281;27;19962;-75
2023/04/09 09:15:42;;;;;;;;;;;;;;;9.04;82.78;96491.19;5106203;27;19955;-75
2023/04/09 09:18:08;;;;;;;;;;;;;;;9.11;78.22;96490.00;5118167;27;19923;-75
2023/04/09 09:20:34;;;;;;;;;;;;;;;9.02;79.38;96483.53;5119758;27;19919;-75
2023/04/09 09:23:01;;;;;;;;;;;;;;;9.02;76.79;96493.84;5109732;27;20385;-75
2023/04/09 09:25:27;;;;;;;;;;;;;;;8.96;78.85;96488.94;5109591;27;20279;-75
2023/04/09 09:28:06;;;;;;;;;;;;;;;8.77;77.63;96490.69;5109709;27;20326;-74
2023/04/09 09:30:33;;;;;;;;;;;;;;;8.86;81.94;96491.13;5124552;27;19946;-75
2023/04/09 09:33:04;;;;;;;;;;;;;;;8.86;72.70;96498.88;5112959;27;19927;-75
2023/04/09 09:35:31;;;;;;;;;;;;;;;8.90;72.91;96489.25;5117125;27;20301;-75
2023/04/09 09:38:01;;;;;;;;;;;;;;;8.71;77.15;96499.53;5114123;27;19919;-75
2023/04/09 09:40:28;;;;;;;;;;;;;;;8.72;73.37;96499.47;5115653;27;19920;-75
2023/04/09 09:42:56;;;;;;;;;;;;;;;8.84;69.15;96502.44;5115189;27;19926;-75
2023/04/09 09:45:23;;;;;;;;;;;;;;;8.90;69.94;96502.16;5118067;27;19923;-75
2023/04/09 09:47:50;;;;;;;;;;;;;;;9.04;72.96;96492.03;5120613;27;19920;-75
2023/04/09 09:50:16;;;;;;;;;;;;;;;9.28;76.05;96495.25;5126705;27;19919;-75
2023/04/09 09:52:45;;;;;;;;;;;;;;;9.21;72.99;96492.09;5114106;27;19924;-75
2023/04/09 09:55:13;;;;;;;;;;;;;;;9.36;70.94;96485.38;5127323;27;19926;-75
2023/04/09 09:57:42;;;;;;;;;;;;;;;9.51;68.76;96490.75;5119258;27;20327;-75
2023/04/09 10:00:11;;;;;;;;;;;;;;;9.53;68.07;96492.38;5114792;27;19924;-75
2023/04/09 10:02:40;;;;;;;;;;;;;;;9.64;65.33;96497.00;5112062;27;19924;-75
2023/04/09 10:05:07;;;;;;;;;;;;;;;9.57;62.67;96498.25;5112926;27;19920;-74
2023/04/09 10:07:35;;;;;;;;;;;;;;;9.58;63.57;96494.72;5123577;27;19923;-75
2023/04/09 10:10:02;;;;;;;;;;;;;;;9.62;65.92;96496.25;5116299;27;20286;-75
2023/04/09 10:12:29;;;;;;;;;;;;;;;9.55;74.78;96490.53;5123216;27;19923;-74
2023/04/09 10:14:55;;;;;;;;;;;;;;;9.30;64.85;96495.16;5120867;27;19927;-75
2023/04/09 10:17:23;;;;;;;;;;;;;;;9.37;69.22;96489.63;5109812;27;19919;-75
2023/04/09 10:19:54;;;;;;;;;;;;;;;9.04;73.03;96486.84;5121351;27;20424;-75
2023/04/09 10:22:23;;;;;;;;;;;;;;;9.06;70.80;96482.47;5102720;27;19923;-75
2023/04/09 10:24:50;;;;;;;;;;;;;;;8.98;71.13;96494.06;5118535;27;19927;-74
2023/04/09 10:27:17;;;;;;;;;;;;;;;8.98;66.28;96481.16;5113009;27;20382;-75
2023/04/09 10:29:45;;;;;;;;;;;;;;;8.98;71.38;96481.97;5115221;27;19929;-75
2023/04/09 10:32:11;;;;;;;;;;;;;;;8.78;67.12;96493.19;5107032;27;20457;-75
2023/04/09 10:34:39;;;;;;;;;;;;;;;8.79;72.55;96488.84;5116689;27;19974;-75
2023/04/09 10:37:07;;;;;;;;;;;;;;;8.55;71.96;96496.78;5118638;27;20393;-74
2023/04/09 10:39:33;;;;;;;;;;;;;;;8.57;77.66;96488.97;5118687;27;19942;-75
2023/04/09 10:42:01;;;;;;;;;;;;;;;8.34;76.65;96495.06;5108658;27;19927;-75
2023/04/09 10:44:30;;;;;;;;;;;;;;;8.51;74.53;96495.22;5119187;28;19931;-75
2023/04/09 10:46:57;;;;;;;;;;;;;;;8.57;74.49;96494.16;5119951;28;20006;-75
2023/04/09 10:49:24;;;;;;;;;;;;;;;8.66;77.58;96489.41;5120001;28;19935;-77
2023/04/09 10:51:52;;;;;;;;;;;;;;;8.67;79.25;96490.25;5118780;28;19919;-74
2023/04/09 10:54:38;;;;;;;;;;;;;;;8.57;77.82;96486.41;5112482;28;19920;-75
2023/04/09 10:57:12;;;;;;;;;;;;;;;8.67;69.70;96483.31;5121529;28;19923;-74
2023/04/09 10:59:39;;;;;;;;;;;;;;;8.58;76.10;96478.56;5115618;28;19920;-75
2023/04/09 11:02:07;;;;;;;;;;;;;;;8.60;76.24;96475.91;5120936;28;19927;-75
2023/04/09 11:04:39;;;;;;;;;;;;;;;8.45;71.87;96482.56;5112285;28;19924;-75
2023/04/09 11:07:08;;;;;;;;;;;;;;;8.40;73.71;96481.94;5113789;28;19930;-75
2023/04/09 11:09:34;;;;;;;;;;;;;;;8.45;75.16;96480.88;5115920;28;19930;-75
2023/04/09 11:12:02;;;;;;;;;;;;;;;8.65;74.13;96479.16;5111065;28;19919;-74
2023/04/09 11:14:28;;;;;;;;;;;;;;;8.86;68.42;96467.88;5121768;28;19924;-75
2023/04/09 11:16:55;;;;;;;;;;;;;;;9.06;71.14;96472.13;5096976;28;19927;-74
2023/04/09 11:19:21;;;;;;;;;;;;;;;9.34;67.80;96468.25;5116953;28;20279;-75
2023/04/09 11:21:48;;;;;;;;;;;;;;;9.86;68.56;96469.22;5101634;28;19924;-75
2023/04/09 11:24:15;;;;;;;;;;;;;;;10.10;64.53;96467.16;5121012;28;19928;-75
2023/04/09 11:26:42;;;;;;;;;;;;;;;10.21;62.78;96477.00;5119163;28;19920;-75
2023/04/09 11:29:08;;;;;;;;;;;;;;;10.16;59.41;96469.47;5122265;28;19924;-75
2023/04/09 11:31:35;;;;;;;;;;;;;;;10.08;69.80;96461.22;5114268;28;20431;-74
2023/04/09 11:34:01;;;;;;;;;;;;;;;10.01;66.78;96461.59;5112192;27;19920;-75
2023/04/09 11:36:27;;;;;;;;;;;;;;;9.90;68.02;96460.41;5119152;27;19927;-75
2023/04/09 11:38:54;;;;;;;;;;;;;;;10.05;67.50;96461.41;5121414;27;19930;-75
2023/04/09 11:41:33;;;;;;;;;;;;;;;10.17;66.37;96454.75;5124520;27;19920;-75
2023/04/09 11:44:01;;;;;;;;;;;;;;;9.92;69.61;96448.22;5119938;27;19927;-75
2023/04/09 11:46:28;;;;;;;;;;;;;;;10.05;60.48;96465.72;5126874;27;19923;-74
2023/04/09 11:48:55;;;;;;;;;;;;;;;10.15;65.25;96464.34;5107273;27;19923;-75
2023/04/09 11:51:22;;;;;;;;;;;;;;;10.02;64.26;96458.94;5119056;27;19920;-75
2023/04/09 11:53:49;;;;;;;;;;;;;;;9.98;68.63;96470.38;5120331;27;19919;-75
2023/04/09 11:56:15;;;;;;;;;;;;;;;9.83;69.17;96459.03;5120088;27;19927;-75
2023/04/09 11:58:46;;;;;;;;;;;;;;;9.92;71.77;96458.56;5123575;27;19926;-75
2023/04/09 12:01:13;;;;;;;;;;;;;;;9.77;73.98;96461.91;5114930;27;19924;-75
2023/04/09 12:03:39;;;;;;;;;;;;;;;9.75;63.89;96460.28;5125593;27;19923;-75
2023/04/09 12:06:06;;;;;;;;;;;;;;;9.99;70.63;96458.25;5113892;27;20325;-75
2023/04/09 12:08:34;;;;;;;;;;;;;;;10.01;72.25;96456.41;5130511;27;19931;-75
2023/04/09 12:11:07;;;;;;;;;;;;;;;9.94;74.06;96467.09;5114077;27;19973;-75
2023/04/09 12:13:33;;;;;;;;;;;;;;;9.90;66.63;96463.00;5130213;27;19923;-75
2023/04/09 12:16:02;;;;;;;;;;;;;;;9.94;68.09;96461.91;5116626;27;19926;-75
2023/04/09 12:18:28;;;;;;;;;;;;;;;9.99;67.15;96463.44;5121569;27;20336;-75
2023/04/09 12:20:54;;;;;;;;;;;;;;;10.03;61.79;96457.19;5118020;27;19923;-75
2023/04/09 12:23:21;;;;;;;;;;;;;;;10.13;59.45;96466.19;5113828;27;19927;-74
2023/04/09 12:25:47;;;;;;;;;;;;;;;10.25;57.81;96467.31;5120123;27;19919;-75
2023/04/09 12:28:16;;;;;;;;;;;;;;;10.29;57.37;96471.47;5123379;27;19931;-75
2023/04/09 12:30:43;;;;;;;;;;;;;;;10.38;61.55;96463.22;5119054;27;19924;-75
2023/04/09 12:33:10;;;;;;;;;;;;;;;10.40;63.37;96463.97;5118058;27;20396;-75
2023/04/09 12:35:37;;;;;;;;;;;;;;;10.47;58.51;96464.50;5116610;27;19919;-74
2023/04/09 12:38:04;;;;;;;;;;;;;;;10.51;57.02;96458.25;5119445;27;19923;-74
2023/04/09 12:40:30;;;;;;;;;;;;;;;10.69;59.90;96465.06;5116247;27;19963;-74
2023/04/09 12:42:57;;;;;;;;;;;;;;;10.82;56.91;96462.66;5114362;27;19920;-75
2023/04/09 12:45:23;;;;;;;;;;;;;;;10.82;55.19;96460.06;5112221;28;20373;-74
2023/04/09 12:47:49;;;;;;;;;;;;;;;10.81;58.48;96455.81;5117993;27;19919;-74